createdAt,value
2022-10-30T00:01:09.481Z,16.87
2022-10-30T00:03:15.096Z,18.37
2022-10-30T00:05:17.530Z,18.33
2022-10-30T00:07:19.630Z,18.33
2022-10-30T00:09:21.818Z,18.33
2022-10-30T00:11:24.017Z,17.13
2022-10-30T00:13:26.160Z,19.40
2022-10-30T00:15:28.281Z,19.17
2022-10-30T00:17:30.387Z,18.97
2022-10-30T00:19:32.492Z,20.50
2022-10-30T00:21:34.621Z,21.03
2022-10-30T00:23:36.712Z,22.00
2022-10-30T00:25:38.888Z,23.80
2022-10-30T00:27:40.979Z,23.00
2022-10-30T00:29:43.176Z,23.60
2022-10-30T00:31:45.312Z,22.30
2022-10-30T00:33:54.659Z,19.40
2022-10-30T00:35:56.904Z,19.57
2022-10-30T00:38:00.835Z,18.87
2022-10-30T00:40:04.398Z,17.03
2022-10-30T00:42:12.009Z,17.80
2022-10-30T00:44:33.036Z,17.40
2022-10-30T00:46:39.541Z,16.17
2022-10-30T00:48:43.498Z,15.90
2022-10-30T00:50:47.146Z,16.20
2022-10-30T00:52:53.163Z,16.60
2022-10-30T00:54:56.353Z,16.27
2022-10-30T00:57:01.216Z,16.27
2022-10-30T00:59:13.362Z,15.87
2022-10-30T01:01:18.909Z,16.00
2022-10-30T01:03:22.288Z,14.40
2022-10-30T01:05:27.451Z,16.10
2022-10-30T01:07:29.789Z,15.93
2022-10-30T01:09:32.132Z,16.37
2022-10-30T01:11:34.443Z,13.43
2022-10-30T01:13:38.581Z,15.27
2022-10-30T01:16:02.024Z,14.23
2022-10-30T01:18:33.745Z,15.47
2022-10-30T01:21:14.921Z,14.97
2022-10-30T01:23:17.047Z,14.40
2022-10-30T01:25:22.616Z,15.60
2022-10-30T01:28:13.795Z,13.80
2022-10-30T01:30:38.716Z,14.97
2022-10-30T01:33:16.223Z,13.73
2022-10-30T01:35:22.560Z,15.40
2022-10-30T01:37:40.113Z,13.10
2022-10-30T01:39:42.237Z,14.37
2022-10-30T01:41:45.515Z,14.57
2022-10-30T01:43:49.006Z,14.70
2022-10-30T01:46:09.922Z,14.27
2022-10-30T01:48:23.836Z,13.77
2022-10-30T01:50:31.695Z,13.63
2022-10-30T01:52:59.699Z,13.20
2022-10-30T01:55:14.012Z,12.67
2022-10-30T01:57:36.786Z,13.70
2022-10-30T01:59:44.753Z,13.60
2022-10-30T02:01:47.571Z,13.03
2022-10-30T02:03:50.341Z,13.00
2022-10-30T02:05:53.738Z,13.00
2022-10-30T02:07:56.180Z,12.10
2022-10-30T02:09:59.784Z,13.37
2022-10-30T02:12:03.995Z,11.80
2022-10-30T02:14:08.156Z,11.90
2022-10-30T02:16:10.754Z,12.37
2022-10-30T02:18:12.879Z,11.73
2022-10-30T02:20:19.022Z,14.43
2022-10-30T02:22:21.272Z,12.80
2022-10-30T02:24:23.518Z,13.50
2022-10-30T02:26:25.606Z,11.47
2022-10-30T02:28:27.858Z,11.73
2022-10-30T02:30:30.233Z,10.93
2022-10-30T02:32:32.558Z,14.33
2022-10-30T02:34:35.354Z,12.03
2022-10-30T02:36:37.727Z,12.30
2022-10-30T02:38:39.850Z,12.10
2022-10-30T02:40:43.142Z,11.80
2022-10-30T02:42:45.270Z,12.13
2022-10-30T02:44:49.416Z,11.17
2022-10-30T02:46:51.577Z,10.90
2022-10-30T02:48:53.706Z,11.37
2022-10-30T02:51:02.690Z,11.97
2022-10-30T02:53:05.313Z,11.43
2022-10-30T02:55:07.747Z,10.83
2022-10-30T02:57:10.125Z,10.90
2022-10-30T02:59:13.386Z,11.33
2022-10-30T03:01:18.514Z,11.40
2022-10-30T03:03:23.960Z,11.43
2022-10-30T03:05:26.567Z,11.10
2022-10-30T03:07:28.871Z,10.50
2022-10-30T03:09:30.990Z,11.87
2022-10-30T03:11:34.272Z,11.73
2022-10-30T03:13:37.125Z,11.20
2022-10-30T03:15:39.222Z,12.40
2022-10-30T03:19:48.329Z,11.30
2022-10-30T03:21:50.502Z,12.47
2022-10-30T03:23:52.571Z,11.27
2022-10-30T03:25:55.860Z,11.03
2022-10-30T03:27:58.153Z,10.90
2022-10-30T03:30:00.491Z,12.50
2022-10-30T03:32:04.229Z,12.43
2022-10-30T03:34:11.482Z,12.50
2022-10-30T03:36:16.735Z,11.80
2022-10-30T03:38:18.814Z,13.17
2022-10-30T03:40:21.003Z,12.97
2022-10-30T03:42:23.195Z,13.47
2022-10-30T03:44:26.919Z,13.50
2022-10-30T03:46:31.531Z,13.60
2022-10-30T03:48:50.097Z,13.57
2022-10-30T03:50:53.623Z,11.43
2022-10-30T03:52:56.947Z,12.50
2022-10-30T03:54:59.044Z,12.27
2022-10-30T03:57:01.265Z,13.27
2022-10-30T03:59:09.348Z,12.43
2022-10-30T04:01:14.513Z,12.60
2022-10-30T04:03:21.775Z,12.67
2022-10-30T04:05:29.641Z,12.20
2022-10-30T04:07:32.457Z,13.00
2022-10-30T04:09:34.826Z,11.60
2022-10-30T04:11:37.002Z,12.23
2022-10-30T04:13:39.291Z,11.93
2022-10-30T04:15:41.496Z,13.43
2022-10-30T04:17:51.556Z,10.60
2022-10-30T04:19:53.952Z,11.43
2022-10-30T04:21:56.343Z,12.40
2022-10-30T04:23:58.558Z,12.13
2022-10-30T04:26:03.667Z,12.87
2022-10-30T04:28:05.963Z,11.47
2022-10-30T04:30:09.962Z,12.60
2022-10-30T04:32:12.517Z,10.33
2022-10-30T04:34:14.986Z,12.83
2022-10-30T04:36:18.581Z,13.27
2022-10-30T04:38:21.333Z,17.20
2022-10-30T04:40:25.481Z,14.80
2022-10-30T04:42:31.861Z,13.80
2022-10-30T04:44:34.016Z,13.27
2022-10-30T04:46:36.137Z,13.50
2022-10-30T04:48:44.439Z,12.93
2022-10-30T04:50:46.859Z,13.57
2022-10-30T04:53:04.793Z,12.97
2022-10-30T04:55:08.297Z,14.00
2022-10-30T04:57:12.183Z,14.47
2022-10-30T04:59:16.570Z,13.30
2022-10-30T05:01:19.291Z,15.73
2022-10-30T05:03:24.934Z,13.50
2022-10-30T05:05:31.601Z,13.67
2022-10-30T05:07:33.757Z,13.93
2022-10-30T05:09:36.037Z,12.90
2022-10-30T05:11:38.124Z,12.27
2022-10-30T05:13:40.261Z,13.60
2022-10-30T05:15:42.389Z,11.97
2022-10-30T05:17:44.525Z,14.90
2022-10-30T05:19:46.689Z,12.50
2022-10-30T05:21:48.841Z,12.60
2022-10-30T05:23:51.003Z,12.80
2022-10-30T05:25:54.603Z,13.67
2022-10-30T05:28:04.781Z,12.83
2022-10-30T05:30:13.061Z,14.20
2022-10-30T05:32:16.389Z,13.40
2022-10-30T05:34:21.793Z,13.00
2022-10-30T05:36:26.146Z,12.07
2022-10-30T05:38:28.477Z,14.20
2022-10-30T05:40:30.689Z,12.50
2022-10-30T05:42:33.949Z,12.70
2022-10-30T05:44:59.317Z,12.07
2022-10-30T05:47:01.407Z,13.20
2022-10-30T05:49:07.148Z,11.90
2022-10-30T05:51:09.370Z,14.70
2022-10-30T05:53:14.159Z,13.40
2022-10-30T05:55:16.376Z,12.70
2022-10-30T05:57:36.873Z,12.70
2022-10-30T05:59:39.034Z,12.27
2022-10-30T06:01:41.365Z,11.67
2022-10-30T06:03:47.399Z,14.13
2022-10-30T06:05:49.471Z,12.47
2022-10-30T06:07:56.101Z,13.60
2022-10-30T06:09:58.354Z,13.10
2022-10-30T06:12:20.744Z,11.57
2022-10-30T06:14:33.497Z,13.00
2022-10-30T06:16:35.659Z,11.90
2022-10-30T06:18:51.057Z,11.80
2022-10-30T06:20:55.855Z,11.47
2022-10-30T06:23:03.178Z,11.90
2022-10-30T06:25:19.327Z,12.50
2022-10-30T06:27:44.309Z,12.30
2022-10-30T06:29:47.928Z,12.87
2022-10-30T06:31:50.019Z,13.93
2022-10-30T06:33:52.464Z,14.20
2022-10-30T06:35:54.686Z,13.70
2022-10-30T06:38:00.130Z,13.80
2022-10-30T06:40:03.757Z,13.27
2022-10-30T06:42:24.577Z,12.97
2022-10-30T06:44:45.057Z,12.03
2022-10-30T06:46:47.352Z,11.90
2022-10-30T06:48:49.731Z,12.17
2022-10-30T06:50:56.960Z,11.87
2022-10-30T06:53:00.255Z,12.17
2022-10-30T06:55:03.576Z,12.60
2022-10-30T06:57:19.698Z,11.50
2022-10-30T06:59:40.546Z,12.30
2022-10-30T07:02:11.353Z,12.10
2022-10-30T07:04:23.787Z,12.57
2022-10-30T07:06:25.969Z,11.57
2022-10-30T07:08:28.059Z,11.70
2022-10-30T07:10:30.287Z,12.23
2022-10-30T07:12:56.793Z,12.50
2022-10-30T07:15:31.802Z,12.00
2022-10-30T07:17:40.893Z,12.80
2022-10-30T07:19:50.439Z,12.43
2022-10-30T07:21:53.237Z,10.57
2022-10-30T07:23:55.476Z,12.43
2022-10-30T07:26:04.413Z,11.97
2022-10-30T07:28:19.222Z,11.73
2022-10-30T07:30:35.858Z,9.80
2022-10-30T07:33:07.164Z,10.50
2022-10-30T07:35:29.380Z,29.13
2022-10-30T07:37:54.140Z,39.53
2022-10-30T07:40:02.211Z,290.33
2022-10-30T07:42:39.639Z,200.63
2022-10-30T07:45:07.330Z,203.93
2022-10-30T07:47:42.289Z,169.70
2022-10-30T07:49:53.228Z,89.83
2022-10-30T07:51:55.320Z,98.07
2022-10-30T07:53:57.658Z,97.60
2022-10-30T07:56:00.557Z,130.13
2022-10-30T07:58:21.784Z,136.47
2022-10-30T08:00:43.175Z,141.13
2022-10-30T08:02:58.957Z,93.50
2022-10-30T08:05:10.176Z,137.63
2022-10-30T08:07:31.995Z,93.90
2022-10-30T08:09:34.231Z,106.17
2022-10-30T08:11:37.440Z,46.37
2022-10-30T08:13:40.083Z,45.43
2022-10-30T08:15:42.977Z,29.27
2022-10-30T08:17:49.230Z,10.60
2022-10-30T08:19:51.348Z,9.83
2022-10-30T08:21:56.160Z,9.63
2022-10-30T08:24:01.322Z,6.87
2022-10-30T08:26:06.219Z,8.10
2022-10-30T08:28:11.818Z,7.03
2022-10-30T08:30:15.716Z,6.77
2022-10-30T08:32:18.219Z,6.60
2022-10-30T08:34:38.928Z,6.07
2022-10-30T08:36:46.727Z,9.00
2022-10-30T08:38:51.446Z,6.17
2022-10-30T08:41:05.719Z,12.30
2022-10-30T08:43:12.286Z,35.23
2022-10-30T08:45:15.373Z,13.03
2022-10-30T08:47:29.294Z,19.87
2022-10-30T08:49:31.732Z,24.17
2022-10-30T08:51:35.752Z,92.73
2022-10-30T08:53:37.907Z,86.37
2022-10-30T08:55:45.176Z,11.20
2022-10-30T08:58:02.273Z,17.33
2022-10-30T09:00:06.417Z,21.67
2022-10-30T09:02:28.702Z,11.10
2022-10-30T09:04:49.713Z,14.00
2022-10-30T09:07:24.112Z,9.80
2022-10-30T09:09:54.896Z,7.90
2022-10-30T09:11:59.378Z,8.87
2022-10-30T09:14:01.954Z,7.67
2022-10-30T09:16:04.610Z,7.30
2022-10-30T09:18:10.500Z,8.20
2022-10-30T09:20:12.778Z,7.40
2022-10-30T09:22:15.030Z,9.03
2022-10-30T09:24:17.836Z,7.37
2022-10-30T09:26:25.771Z,22.60
2022-10-30T09:28:35.093Z,6.70
2022-10-30T09:31:04.301Z,6.00
2022-10-30T09:33:10.298Z,6.53
2022-10-30T09:35:33.073Z,6.80
2022-10-30T09:37:36.816Z,7.33
2022-10-30T09:39:41.913Z,7.07
2022-10-30T09:41:56.067Z,6.67
2022-10-30T09:44:23.617Z,5.73
2022-10-30T09:46:53.708Z,7.00
2022-10-30T09:51:39.919Z,5.80
2022-10-30T09:53:53.397Z,6.17
2022-10-30T09:56:12.634Z,5.77
2022-10-30T09:58:31.808Z,6.40
2022-10-30T10:00:45.894Z,6.00
2022-10-30T10:03:13.824Z,5.97
2022-10-30T10:05:48.137Z,5.97
2022-10-30T10:08:14.674Z,6.57
2022-10-30T10:10:48.044Z,5.67
2022-10-30T10:13:00.119Z,5.93
2022-10-30T10:15:11.826Z,5.47
2022-10-30T10:17:19.091Z,4.97
2022-10-30T10:19:39.272Z,4.90
2022-10-30T10:21:47.919Z,4.70
2022-10-30T10:23:52.735Z,4.63
2022-10-30T10:25:55.224Z,6.07
2022-10-30T10:28:03.831Z,4.67
2022-10-30T10:30:11.611Z,5.40
2022-10-30T10:32:23.669Z,5.63
2022-10-30T10:34:45.822Z,4.97
2022-10-30T10:36:50.939Z,5.70
2022-10-30T10:39:05.156Z,5.40
2022-10-30T10:41:53.408Z,4.90
2022-10-30T10:44:41.255Z,4.73
2022-10-30T10:47:06.773Z,4.90
2022-10-30T10:49:13.683Z,5.63
2022-10-30T10:51:20.263Z,6.70
2022-10-30T10:53:31.269Z,6.43
2022-10-30T10:55:36.465Z,6.97
2022-10-30T10:57:40.873Z,4.80
2022-10-30T10:59:47.887Z,5.90
2022-10-30T11:02:05.781Z,5.13
2022-10-30T11:04:43.630Z,7.00
2022-10-30T11:06:49.864Z,8.07
2022-10-30T11:08:53.891Z,6.13
2022-10-30T11:11:06.776Z,6.13
2022-10-30T11:13:14.752Z,4.90
2022-10-30T11:15:56.424Z,12.80
2022-10-30T11:18:02.854Z,60.77
2022-10-30T11:20:28.656Z,62.27
2022-10-30T11:22:36.586Z,24.40
2022-10-30T11:24:38.516Z,8.20
2022-10-30T11:26:40.689Z,6.00
2022-10-30T11:28:59.793Z,6.63
2022-10-30T11:31:18.168Z,7.40
2022-10-30T11:33:23.349Z,4.83
2022-10-30T11:35:26.130Z,5.23
2022-10-30T11:37:33.641Z,4.90
2022-10-30T11:39:35.690Z,5.23
2022-10-30T11:41:38.276Z,5.27
2022-10-30T11:43:41.255Z,4.77
2022-10-30T11:45:43.766Z,5.10
2022-10-30T11:47:46.307Z,5.33
2022-10-30T11:49:49.967Z,5.40
2022-10-30T11:51:52.268Z,5.03
2022-10-30T11:53:54.248Z,5.10
2022-10-30T11:55:56.832Z,5.77
2022-10-30T11:57:59.556Z,4.80
2022-10-30T12:00:05.526Z,5.00
2022-10-30T12:02:28.952Z,5.37
2022-10-30T12:04:33.072Z,8.27
2022-10-30T12:06:35.180Z,9.70
2022-10-30T12:08:37.318Z,13.73
2022-10-30T12:10:56.516Z,19.10
2022-10-30T12:13:04.536Z,12.90
2022-10-30T12:15:19.012Z,4.73
2022-10-30T12:17:21.627Z,5.10
2022-10-30T12:19:24.895Z,4.60
2022-10-30T12:21:28.947Z,4.83
2022-10-30T12:23:31.562Z,5.50
2022-10-30T12:25:33.643Z,5.87
2022-10-30T12:27:38.502Z,6.00
2022-10-30T12:30:09.244Z,6.30
2022-10-30T12:32:17.721Z,5.60
2022-10-30T12:34:28.814Z,4.50
2022-10-30T12:36:36.205Z,6.47
2022-10-30T12:38:41.155Z,5.80
2022-10-30T12:40:53.432Z,5.40
2022-10-30T12:43:18.738Z,5.73
2022-10-30T12:45:35.335Z,6.20
2022-10-30T12:47:46.689Z,5.33
2022-10-30T12:49:52.987Z,5.70
2022-10-30T12:52:01.592Z,5.70
2022-10-30T12:54:25.323Z,5.17
2022-10-30T12:56:33.485Z,5.07
2022-10-30T12:58:48.405Z,8.50
2022-10-30T13:01:01.155Z,11.30
2022-10-30T13:03:15.435Z,51.80
2022-10-30T13:05:38.838Z,27.60
2022-10-30T13:08:13.239Z,63.43
2022-10-30T13:10:30.978Z,61.53
2022-10-30T13:12:38.360Z,12.20
2022-10-30T13:14:56.708Z,6.30
2022-10-30T13:16:58.662Z,19.00
2022-10-30T13:19:01.542Z,9.43
2022-10-30T13:21:20.873Z,5.83
2022-10-30T13:23:30.044Z,8.33
2022-10-30T13:25:40.206Z,6.73
2022-10-30T13:27:52.278Z,9.73
2022-10-30T13:30:13.045Z,7.90
2022-10-30T13:32:30.328Z,5.67
2022-10-30T13:35:15.941Z,6.17
2022-10-30T13:37:27.099Z,6.20
2022-10-30T13:39:54.753Z,6.50
2022-10-30T13:42:19.126Z,6.30
2022-10-30T13:44:52.152Z,5.03
2022-10-30T13:47:06.530Z,5.23
2022-10-30T13:49:50.376Z,8.30
2022-10-30T13:52:10.678Z,5.17
2022-10-30T13:54:32.396Z,4.80
2022-10-30T13:56:35.140Z,5.90
2022-10-30T13:58:44.136Z,4.60
2022-10-30T14:01:06.488Z,4.87
2022-10-30T14:03:38.718Z,5.13
2022-10-30T14:05:53.866Z,14.20
2022-10-30T14:08:08.372Z,11.40
2022-10-30T14:10:24.509Z,9.47
2022-10-30T14:12:57.316Z,5.73
2022-10-30T14:15:04.480Z,5.17
2022-10-30T14:17:11.293Z,5.43
2022-10-30T14:19:14.512Z,5.10
2022-10-30T14:21:41.441Z,4.90
2022-10-30T14:23:43.424Z,5.07
2022-10-30T14:26:12.628Z,5.30
2022-10-30T14:28:21.344Z,6.47
2022-10-30T14:30:23.221Z,4.73
2022-10-30T14:32:25.138Z,5.30
2022-10-30T14:34:53.116Z,5.23
2022-10-30T14:36:55.045Z,5.33
2022-10-30T14:39:14.837Z,5.37
2022-10-30T14:41:22.402Z,4.20
2022-10-30T14:43:29.466Z,5.47
2022-10-30T14:45:44.743Z,5.60
2022-10-30T14:47:52.647Z,4.67
2022-10-30T14:49:57.463Z,4.43
2022-10-30T14:52:47.991Z,5.57
2022-10-30T14:55:19.014Z,5.97
2022-10-30T14:57:23.110Z,5.40
2022-10-30T14:59:33.245Z,5.70
2022-10-30T15:01:52.660Z,5.13
2022-10-30T15:04:21.864Z,5.90
2022-10-30T15:06:36.467Z,5.43
2022-10-30T15:08:41.834Z,5.93
2022-10-30T15:10:58.201Z,5.87
2022-10-30T15:13:21.906Z,6.03
2022-10-30T15:15:24.063Z,6.50
2022-10-30T15:17:32.888Z,8.07
2022-10-30T15:19:35.526Z,10.03
2022-10-30T15:21:54.220Z,6.97
2022-10-30T15:23:57.980Z,9.27
2022-10-30T15:26:08.099Z,8.73
2022-10-30T15:28:17.966Z,9.17
2022-10-30T15:30:24.153Z,8.93
2022-10-30T15:32:26.533Z,7.37
2022-10-30T15:34:29.971Z,7.53
2022-10-30T15:36:40.397Z,8.57
2022-10-30T15:38:42.317Z,7.50
2022-10-30T15:40:44.384Z,7.53
2022-10-30T15:42:47.613Z,9.33
2022-10-30T15:44:49.680Z,8.93
2022-10-30T15:46:53.681Z,11.37
2022-10-30T15:48:55.644Z,9.10
2022-10-30T15:51:07.326Z,9.80
2022-10-30T15:53:18.678Z,11.13
2022-10-30T15:55:26.287Z,9.30
2022-10-30T16:00:00.193Z,12.57
2022-10-30T16:02:02.234Z,11.77
2022-10-30T16:04:04.663Z,13.73
2022-10-30T16:06:16.661Z,13.23
2022-10-30T16:08:23.485Z,14.47
2022-10-30T16:10:36.093Z,16.03
2022-10-30T16:12:38.115Z,17.67
2022-10-30T16:14:40.204Z,16.93
2022-10-30T16:16:43.657Z,14.63
2022-10-30T16:18:45.727Z,13.50
2022-10-30T16:20:55.552Z,15.80
2022-10-30T16:22:58.914Z,21.07
2022-10-30T16:25:01.292Z,16.47
2022-10-30T16:27:06.194Z,13.80
2022-10-30T16:29:14.288Z,14.47
2022-10-30T16:31:20.129Z,14.40
2022-10-30T16:33:25.425Z,11.57
2022-10-30T16:35:27.962Z,13.93
2022-10-30T16:37:35.230Z,10.50
2022-10-30T16:39:37.864Z,11.60
2022-10-30T16:41:40.027Z,13.30
2022-10-30T16:43:48.416Z,11.93
2022-10-30T16:45:51.165Z,10.77
2022-10-30T16:47:58.456Z,10.07
2022-10-30T16:50:00.677Z,10.07
2022-10-30T16:52:05.929Z,9.97
2022-10-30T16:54:27.664Z,9.87
2022-10-30T16:56:32.211Z,10.53
2022-10-30T16:58:34.177Z,9.97
2022-10-30T17:00:36.800Z,11.30
2022-10-30T17:02:44.258Z,11.10
2022-10-30T17:04:52.522Z,11.00
2022-10-30T17:07:05.364Z,10.33
2022-10-30T17:09:10.314Z,11.17
2022-10-30T17:11:19.993Z,12.10
2022-10-30T17:13:38.076Z,11.53
2022-10-30T17:15:40.718Z,11.70
2022-10-30T17:17:42.790Z,11.73
2022-10-30T17:19:49.554Z,12.00
2022-10-30T17:21:52.432Z,12.30
2022-10-30T17:23:56.895Z,12.93
2022-10-30T17:25:58.872Z,13.23
2022-10-30T17:28:00.928Z,11.97
2022-10-30T17:30:03.606Z,12.57
2022-10-30T17:32:14.167Z,11.87
2022-10-30T17:34:16.145Z,11.73
2022-10-30T17:36:18.017Z,12.53
2022-10-30T17:38:19.976Z,14.50
2022-10-30T17:40:22.194Z,14.77
2022-10-30T17:42:24.193Z,13.60
2022-10-30T17:44:26.538Z,15.77
2022-10-30T17:46:28.682Z,14.17
2022-10-30T17:48:30.631Z,17.30
2022-10-30T17:50:32.668Z,29.27
2022-10-30T17:52:34.954Z,30.60
2022-10-30T17:54:36.904Z,30.97
2022-10-30T17:56:38.946Z,29.83
2022-10-30T17:58:41.027Z,28.33
2022-10-30T18:00:43.050Z,27.13
2022-10-30T18:02:45.192Z,31.50
2022-10-30T18:04:47.879Z,31.77
2022-10-30T18:06:49.831Z,29.87
2022-10-30T18:08:52.082Z,27.23
2022-10-30T18:10:54.175Z,29.37
2022-10-30T18:12:56.153Z,26.47
2022-10-30T18:14:58.200Z,26.77
2022-10-30T18:17:00.243Z,27.20
2022-10-30T18:19:02.229Z,25.50
2022-10-30T18:21:04.392Z,24.57
2022-10-30T18:25:45.663Z,20.90
2022-10-30T18:27:47.642Z,20.30
2022-10-30T18:29:49.609Z,20.87
2022-10-30T18:31:51.655Z,21.10
2022-10-30T18:33:53.587Z,22.87
2022-10-30T18:35:57.570Z,23.53
2022-10-30T18:38:00.104Z,23.57
2022-10-30T18:40:02.202Z,25.53
2022-10-30T18:42:04.300Z,24.50
2022-10-30T18:44:06.294Z,24.80
2022-10-30T18:46:11.761Z,23.77
2022-10-30T18:48:13.704Z,22.63
2022-10-30T18:50:16.388Z,24.33
2022-10-30T18:52:18.363Z,20.93
2022-10-30T18:54:20.312Z,18.03
2022-10-30T18:56:27.056Z,20.70
2022-10-30T18:58:29.011Z,19.27
2022-10-30T19:00:39.656Z,16.70
2022-10-30T19:02:47.440Z,18.50
2022-10-30T19:04:49.729Z,16.70
2022-10-30T19:06:51.713Z,17.63
2022-10-30T19:08:53.930Z,19.87
2022-10-30T19:10:58.249Z,17.20
2022-10-30T19:13:13.548Z,18.73
2022-10-30T19:15:21.525Z,17.47
2022-10-30T19:17:23.537Z,17.27
2022-10-30T19:19:25.581Z,16.00
2022-10-30T19:21:28.041Z,16.83
2022-10-30T19:23:30.094Z,17.07
2022-10-30T19:25:34.575Z,17.77
2022-10-30T19:27:36.552Z,19.83
2022-10-30T19:29:38.615Z,19.07
2022-10-30T19:31:40.719Z,19.50
2022-10-30T19:33:43.023Z,17.70
2022-10-30T19:35:45.050Z,18.47
2022-10-30T19:37:47.087Z,16.70
2022-10-30T19:39:49.059Z,18.87
2022-10-30T19:41:51.043Z,19.13
2022-10-30T19:43:53.704Z,18.30
2022-10-30T19:45:59.174Z,19.27
2022-10-30T19:48:04.468Z,16.40
2022-10-30T19:50:22.810Z,15.80
2022-10-30T19:52:29.161Z,15.53
2022-10-30T19:54:32.107Z,15.60
2022-10-30T19:56:34.071Z,16.10
2022-10-30T19:58:36.190Z,14.77
2022-10-30T20:00:39.886Z,14.53
2022-10-30T20:02:42.074Z,14.83
2022-10-30T20:04:44.016Z,15.20
2022-10-30T20:06:46.071Z,14.60
2022-10-30T20:08:48.034Z,13.50
2022-10-30T20:10:53.799Z,14.10
2022-10-30T20:12:57.770Z,12.97
2022-10-30T20:14:59.733Z,12.97
2022-10-30T20:17:01.706Z,13.30
2022-10-30T20:19:30.289Z,12.30
2022-10-30T20:21:32.249Z,13.57
2022-10-30T20:23:34.428Z,12.60
2022-10-30T20:25:37.213Z,11.47
2022-10-30T20:27:40.557Z,12.17
2022-10-30T20:29:43.537Z,11.60
2022-10-30T20:31:45.559Z,12.20
2022-10-30T20:33:47.482Z,13.50
2022-10-30T20:35:50.304Z,13.20
2022-10-30T20:38:00.030Z,13.67
2022-10-30T20:40:01.931Z,13.57
2022-10-30T20:42:04.125Z,13.70
2022-10-30T20:44:06.463Z,11.93
2022-10-30T20:46:10.019Z,13.03
2022-10-30T20:48:12.102Z,11.47
2022-10-30T20:50:14.656Z,12.20
2022-10-30T20:52:16.634Z,12.27
2022-10-30T20:54:18.578Z,12.00
2022-10-30T20:56:20.592Z,14.57
2022-10-30T20:58:22.563Z,11.70
2022-10-30T21:00:24.469Z,11.13
2022-10-30T21:02:26.594Z,12.23
2022-10-30T21:04:28.679Z,12.23
2022-10-30T21:06:30.663Z,11.40
2022-10-30T21:08:32.774Z,12.30
2022-10-30T21:10:37.663Z,11.80
2022-10-30T21:12:39.738Z,11.67
2022-10-30T21:14:41.805Z,11.73
2022-10-30T21:16:43.705Z,11.27
2022-10-30T21:18:51.145Z,12.83
2022-10-30T21:20:53.065Z,11.17
2022-10-30T21:22:55.099Z,10.83
2022-10-30T21:24:57.052Z,11.40
2022-10-30T21:26:58.973Z,11.30
2022-10-30T21:29:01.695Z,11.07
2022-10-30T21:31:09.366Z,11.33
2022-10-30T21:33:11.588Z,11.33
2022-10-30T21:35:13.650Z,10.90
2022-10-30T21:37:15.653Z,11.97
2022-10-30T21:39:17.679Z,11.83
2022-10-30T21:41:21.898Z,11.43
2022-10-30T21:43:24.183Z,11.07
2022-10-30T21:45:26.421Z,11.77
2022-10-30T21:47:28.602Z,11.20
2022-10-30T21:49:30.547Z,12.83
2022-10-30T21:51:32.940Z,11.87
2022-10-30T21:53:35.007Z,12.20
2022-10-30T21:55:40.184Z,13.33
2022-10-30T21:57:42.170Z,13.90
2022-10-30T21:59:44.262Z,13.57
2022-10-30T22:01:46.615Z,15.87
2022-10-30T22:03:49.409Z,14.90
2022-10-30T22:05:51.521Z,15.60
2022-10-30T22:07:54.006Z,15.10
2022-10-30T22:09:55.979Z,15.57
2022-10-30T22:11:57.927Z,17.00
2022-10-30T22:14:02.318Z,15.60
2022-10-30T22:16:05.905Z,16.03
2022-10-30T22:18:07.976Z,16.10
2022-10-30T22:20:10.685Z,16.00
2022-10-30T22:22:12.746Z,17.53
2022-10-30T22:24:16.099Z,17.63
2022-10-30T22:26:20.585Z,16.53
2022-10-30T22:28:22.573Z,16.80
2022-10-30T22:30:24.607Z,17.20
2022-10-30T22:32:26.833Z,18.87
2022-10-30T22:34:28.799Z,20.10
2022-10-30T22:36:32.738Z,17.87
2022-10-30T22:38:35.336Z,17.30
2022-10-30T22:40:37.658Z,17.87
2022-10-30T22:42:39.645Z,19.00
2022-10-30T22:44:41.671Z,19.50
2022-10-30T22:46:43.531Z,17.83
2022-10-30T22:48:45.786Z,20.10
2022-10-30T22:50:47.914Z,18.63
2022-10-30T22:52:49.885Z,18.00
2022-10-30T22:54:51.802Z,18.60
2022-10-30T22:56:55.532Z,18.27
2022-10-30T22:59:00.893Z,16.47
2022-10-30T23:01:16.610Z,17.77
2022-10-30T23:03:18.886Z,16.20
2022-10-30T23:05:21.129Z,18.20
2022-10-30T23:07:23.265Z,17.47
2022-10-30T23:09:25.422Z,17.77
2022-10-30T23:11:28.594Z,16.90
2022-10-30T23:13:31.111Z,15.60
2022-10-30T23:15:33.202Z,19.70
2022-10-30T23:17:35.260Z,18.63
2022-10-30T23:19:37.351Z,16.47
2022-10-30T23:21:39.484Z,16.90
2022-10-30T23:23:42.184Z,16.60
2022-10-30T23:25:44.345Z,16.03
2022-10-30T23:27:46.492Z,15.60
2022-10-30T23:29:48.705Z,15.10
2022-10-30T23:31:50.768Z,15.93
2022-10-30T23:33:55.214Z,15.00
2022-10-30T23:36:01.474Z,16.00
2022-10-30T23:38:04.306Z,16.50
2022-10-30T23:40:06.952Z,15.43
2022-10-30T23:42:09.151Z,14.60
2022-10-30T23:44:13.132Z,16.10
2022-10-30T23:46:15.181Z,15.97
2022-10-30T23:48:17.280Z,15.43
2022-10-30T23:50:19.409Z,14.90
2022-10-30T23:52:21.510Z,14.20
2022-10-30T23:54:23.610Z,17.03
2022-10-30T23:56:26.188Z,14.70
2022-10-30T23:58:28.237Z,15.00
